Terminal Aerodrome Forecast
Issued by NWS

Home | Current Version | Previous Version | Text Only | Print | Product List | Glossary On
Versions: 1 2 3 4 5 6 7 8 9 10 11 12 13 14 15
000
FTUS43 KSGF 280520
TAFBBG
TAF
KBBG 280520Z 2806/2906 00000KT P6SM VCSH SCT040 BKN090
      TEMPO 2806/2810 5SM -SHRA BKN025 OVC070
     FM281000 VRB03KT 6SM BR VCSH SCT007 BKN015 OVC025
      TEMPO 2810/2814 BKN007 OVC015
     FM281700 01008KT P6SM BKN035
     FM290000 00000KT P6SM SKC=

USA.gov is the U.S. government's official web portal to all federal, state and local government web resources and services.